Regal Princess — ZCEK6 — position and weather

sailwx.info

Track history (hours):
 
Tides and Currents Weather Stations Pressure Air Temp Water Temp Dewpoint Dewpoint Depression Visibility Wind Speed Wind Dir Waves Ship Positions

Regal Princess

Last reported at 2018-Oct-17 04:00 UTC. Time now 2018-Oct-17 21:14 UTC.
Position N 44°00' W 067°00'.

Length 330 m; draft 8.5 m.

Type: Passenger vessel. MMSI: 310674000.

Wind from 240 at 40 knots

Barometer 1016.7 mb
Air temperature 10.0 ° C
Visibility: greater than 10.8 NM
Dewpoint 4.7 ° C
Water temperature 12.7 ° C

Date/timePositionNaut miles runAvg speedWind from/ knotsBaromVisibWave heightAir tempDewpointWater temp
2018-Oct-17 04:00N 44°00' W 067°00'9616.0 240 / 401016.710.8 10.0 4.712.7
2018-Oct-16 22:00N 43°30' W 069°06'19 3.1 240 / 241012.710.8 12.0 4.512.7
2018-Oct-16 16:00N 43°12' W 069°12'6010.0 280 / 301013.210.8 9.3-0.313.0
2018-Oct-16 10:00N 43°42' W 068°00'21 9.0 270 / 601005.210.8 9.8-0.212.6
2018-Oct-16 07:37N 43°43' W 068°30'319.1
2018-Oct-16 07:27N 43°40' W 068°32'1119.1
2018-Oct-16 06:51N 43°31' W 068°42'6419.6
2018-Oct-16 03:35N 42°54' W 069°54'219.6
2018-Oct-16 03:30N 42°53' W 069°56'919.8
2018-Oct-16 03:03N 42°48' W 070°06'119.8
2018-Oct-16 03:01N 42°48' W 070°07'1020.2
2018-Oct-16 02:30N 42°42' W 070°18'920.4
2018-Oct-16 02:04N 42°36' W 070°28'120.6
2018-Oct-16 02:00N 42°36' W 070°29'1020.8
2018-Oct-16 01:31N 42°30' W 070°41'920.1
2018-Oct-16 01:04N 42°25' W 070°51'116.4
2018-Oct-16 01:01N 42°24' W 070°52'611.8
2018-Oct-16 00:30N 42°20' W 070°58'3 6.6
2018-Oct-16 00:03N 42°21' W 071°01'0 1.8
2018-Oct-16 00:00N 42°21' W 071°02'0 0.0
2018-Oct-15 23:28N 42°21' W 071°02'0 0.0
2018-Oct-15 23:01N 42°21' W 071°02'0 0.0
2018-Oct-15 22:58N 42°21' W 071°02'0 0.0
2018-Oct-15 22:28N 42°21' W 071°02'0 0.0
2018-Oct-15 22:01N 42°21' W 071°02'391.7
2018-Oct-15 22:00N 42°18' W 071°00'324.0 220 / 221009.710.8 18.216.015.2
2018-Oct-15 21:52N 42°21' W 071°02'0 0.0
2018-Oct-15 21:28N 42°21' W 071°02'0 0.0
2018-Oct-15 21:01N 42°21' W 071°02'0 0.0
2018-Oct-15 20:58N 42°21' W 071°02'0 0.0
2018-Oct-15 20:28N 42°21' W 071°02'0 0.0
2018-Oct-15 20:01N 42°21' W 071°02'0 0.0
2018-Oct-15 19:58N 42°21' W 071°02'0 0.0
2018-Oct-15 19:30N 42°21' W 071°02'0 0.0
2018-Oct-15 19:00N 42°21' W 071°02'0 0.0
2018-Oct-15 18:20N 42°21' W 071°02'0 0.0
2018-Oct-15 17:56N 42°21' W 071°02'0 0.0
2018-Oct-15 17:29N 42°21' W 071°02'0 0.0
2018-Oct-15 16:59N 42°21' W 071°02'0 0.0
2018-Oct-15 16:29N 42°21' W 071°02'0 0.0
2018-Oct-15 16:02N 42°21' W 071°02'0 0.0
2018-Oct-15 15:32N 42°21' W 071°02'0 0.0
2018-Oct-15 15:20N 42°21' W 071°02'0 0.0
2018-Oct-15 14:56N 42°21' W 071°02'1 0.7
2018-Oct-15 14:03N 42°21' W 071°01'0 1.4
2018-Oct-15 14:00N 42°21' W 071°01'3 5.6
2018-Oct-15 13:30N 42°20' W 070°57'613.2
2018-Oct-15 13:03N 42°24' W 070°51'113.1
2018-Oct-15 13:00N 42°24' W 070°50'713.8
2018-Oct-15 12:30N 42°22' W 070°41'817.4
2018-Oct-15 12:03N 42°22' W 070°30'117.2
2018-Oct-15 12:00N 42°22' W 070°29'917.9
2018-Oct-15 11:30N 42°21' W 070°17'818.6
2018-Oct-15 11:03N 42°20' W 070°06'118.7
2018-Oct-15 11:00N 42°20' W 070°05'1110.8
2018-Oct-15 10:00N 42°12' W 069°54'44663.7 200 / 91021.810.8 13.3 8.714.2
2018-Oct-15 03:00N 40°24' W 060°18'49899.5 330 / 191028.310.8 14.0 5.617.6
2018-Oct-14 22:00N 41°18' W 071°12'890.8 1022.310.8 14.0 5.617.6
2018-Oct-14 21:54N 41°24' W 071°20'6 4.0
2018-Oct-14 20:29N 41°29' W 071°20'0 0.0
2018-Oct-14 10:36N 41°29' W 071°20'0 0.9
2018-Oct-14 10:29N 41°29' W 071°20'12111.0
2018-Oct-13 23:27N 40°25' W 073°36'4 9.9
2018-Oct-13 23:00N 40°24' W 073°42'3108.7 280 / 201014.310.8 14.8 7.819.7
2018-Oct-13 22:58N 40°26' W 073°45'511.1
2018-Oct-13 22:30N 40°28' W 073°51'817.4
2018-Oct-13 22:04N 40°31' W 074°00'118.2
2018-Oct-13 22:01N 40°32' W 074°01'815.1
2018-Oct-13 21:30N 40°40' W 074°03'2 4.7
2018-Oct-13 21:03N 40°41' W 074°01'0 0.0
2018-Oct-13 21:00N 40°41' W 074°01'0 0.0
2018-Oct-13 20:29N 40°41' W 074°01'0 0.0
2018-Oct-13 20:01N 40°41' W 074°01'0 0.0
2018-Oct-13 19:58N 40°41' W 074°01'0 0.0
2018-Oct-13 19:31N 40°41' W 074°01'0 0.0
2018-Oct-13 19:03N 40°41' W 074°01'0 0.0
2018-Oct-13 19:00N 40°41' W 074°01'0 0.0
2018-Oct-13 18:30N 40°41' W 074°01'0 0.0
2018-Oct-13 18:03N 40°41' W 074°01'0 0.0
2018-Oct-13 18:00N 40°41' W 074°01'0 0.0
2018-Oct-13 17:30N 40°41' W 074°01'0 0.0
2018-Oct-13 17:02N 40°41' W 074°01'0 0.0
2018-Oct-13 16:59N 40°41' W 074°01'0 0.0
2018-Oct-13 16:29N 40°41' W 074°01'0 0.0
2018-Oct-13 16:02N 40°41' W 074°01'0 0.0
2018-Oct-13 16:00N 40°41' W 074°01'0 0.0
2018-Oct-13 15:28N 40°41' W 074°01'0 0.0
2018-Oct-13 15:01N 40°41' W 074°01'0 0.0
2018-Oct-13 14:58N 40°41' W 074°01'0 0.0
2018-Oct-13 14:29N 40°41' W 074°01'0 0.0
2018-Oct-13 13:57N 40°41' W 074°01'0 0.0
2018-Oct-13 13:30N 40°41' W 074°01'0 0.0
2018-Oct-13 13:03N 40°41' W 074°01'0 0.0
2018-Oct-13 13:00N 40°41' W 074°01'0 0.0
2018-Oct-13 12:29N 40°41' W 074°01'0 0.0
2018-Oct-13 12:02N 40°41' W 074°01'0 0.0
2018-Oct-13 12:00N 40°41' W 074°01'0 0.0
2018-Oct-13 11:28N 40°41' W 074°01'0 0.0
2018-Oct-13 11:03N 40°41' W 074°01'0 0.0
2018-Oct-13 11:00N 40°41' W 074°01'0 0.0
2018-Oct-13 10:30N 40°41' W 074°01'0 0.7
2018-Oct-13 10:03N 40°41' W 074°01'0 2.5
2018-Oct-13 10:00N 40°41' W 074°01'1 2.6
2018-Oct-13 09:30N 40°40' W 074°03'3 7.4
2018-Oct-13 09:03N 40°37' W 074°03'1 9.6
2018-Oct-13 09:00N 40°36' W 074°03'612.4
2018-Oct-13 08:30N 40°31' W 073°59'715.6
2018-Oct-13 08:03N 40°28' W 073°50'115.3
2018-Oct-13 07:59N 40°27' W 073°49'52011.3
2018-Oct-11 10:00N 44°18' W 063°18'28121.6 040 / 241016.110.8 10.3 5.015.3
2018-Oct-10 21:00N 40°18' W 066°36'220 5.8 040 / 241015.810.8 13.810.412.5
2018-Oct-09 07:21N 43°40' W 068°32'7820.2
2018-Oct-09 03:29N 42°53' W 069°57'819.5
2018-Oct-09 03:03N 42°48' W 070°07'120.1
2018-Oct-09 03:00N 42°47' W 070°08'1020.2
2018-Oct-09 02:30N 42°41' W 070°19'920.2
2018-Oct-09 02:03N 42°36' W 070°29'120.0
2018-Oct-09 02:01N 42°36' W 070°30'1020.1
2018-Oct-09 01:30N 42°30' W 070°41'918.9
2018-Oct-09 01:03N 42°25' W 070°50'115.6
2018-Oct-09 01:00N 42°24' W 070°51'612.0
2018-Oct-09 00:30N 42°20' W 070°57'3 6.8
2018-Oct-09 00:03N 42°21' W 071°01'0 2.7
2018-Oct-09 00:00N 42°21' W 071°02'0 0.4
2018-Oct-08 23:23N 42°21' W 071°02'0 0.0
2018-Oct-08 22:59N 42°21' W 071°02'0 0.0
2018-Oct-08 22:29N 42°21' W 071°02'0 0.0
2018-Oct-08 21:58N 42°21' W 071°02'0 0.0
2018-Oct-08 21:30N 42°21' W 071°02'0 0.0
2018-Oct-08 20:59N 42°21' W 071°02'0 0.0
2018-Oct-08 20:20N 42°21' W 071°02'0 0.0
2018-Oct-08 19:59N 42°21' W 071°02'0 0.0
2018-Oct-08 19:29N 42°21' W 071°02'0 0.0
2018-Oct-08 19:03N 42°21' W 071°02'0 0.0
2018-Oct-08 18:56N 42°21' W 071°02'0 0.0
2018-Oct-08 18:09N 42°21' W 071°02'0 0.0
2018-Oct-08 18:01N 42°21' W 071°02'0 0.0
2018-Oct-08 17:59N 42°21' W 071°02'0 0.0
2018-Oct-08 17:26N 42°21' W 071°02'0 0.0
2018-Oct-08 17:02N 42°21' W 071°02'0 0.0
2018-Oct-08 16:59N 42°21' W 071°02'0 0.0
2018-Oct-08 16:20N 42°21' W 071°02'0 0.0
2018-Oct-08 15:53N 42°21' W 071°02'0 0.0
2018-Oct-08 15:18N 42°21' W 071°02'0 0.0
2018-Oct-08 14:56N 42°21' W 071°02'1 0.8
2018-Oct-08 14:03N 42°21' W 071°01'0 1.6
2018-Oct-08 14:00N 42°21' W 071°01'3 7.1
2018-Oct-08 13:30N 42°21' W 070°56'612.2
2018-Oct-08 13:03N 42°24' W 070°50'0 8.1
2018-Oct-08 13:00N 42°24' W 070°49'714.6
2018-Oct-08 12:30N 42°22' W 070°40'919.3
2018-Oct-08 12:03N 42°21' W 070°28'119.2
2018-Oct-08 12:00N 42°21' W 070°27'1020.0
2018-Oct-08 11:30N 42°20' W 070°14'919.9
2018-Oct-08 11:03N 42°19' W 070°01'119.5
2018-Oct-08 11:00N 42°19' W 070°00'90 7.5
2018-Oct-07 23:00N 41°00' W 071°00'2742.1 250 / 141021.910.8 20.519.418.7
2018-Oct-07 22:21N 41°23' W 071°19'514.0
2018-Oct-07 21:59N 41°27' W 071°23'3 3.5
2018-Oct-07 21:12N 41°29' W 071°20'0 0.0
2018-Oct-07 10:40N 41°29' W 071°20'0 1.2
2018-Oct-07 10:27N 41°29' W 071°21'  
Track history (hours):
 
Tides and Currents Weather Stations Pressure Air Temp Water Temp Dewpoint Dewpoint Depression Visibility Wind Speed Wind Dir Waves Ship Positions

Regal Princess

Last reported at 2018-Oct-17 04:00 UTC. Time now 2018-Oct-17 21:14 UTC.
Position N 44°00' W 067°00'.

Length 330 m; draft 8.5 m.

Type: Passenger vessel. MMSI: 310674000.

Wind from 240 at 40 knots

Barometer 1016.7 mb
Air temperature 10.0 ° C
Visibility: greater than 10.8 NM
Dewpoint 4.7 ° C
Water temperature 12.7 ° C

Date/timePositionNaut miles runAvg speedWind from/ knotsBaromVisibWave heightAir tempDewpointWater temp
2018-Oct-17 04:00N 44°00' W 067°00'9616.0 240 / 401016.710.8 10.0 4.712.7
2018-Oct-16 22:00N 43°30' W 069°06'19 3.1 240 / 241012.710.8 12.0 4.512.7
2018-Oct-16 16:00N 43°12' W 069°12'6010.0 280 / 301013.210.8 9.3-0.313.0
2018-Oct-16 10:00N 43°42' W 068°00'21 9.0 270 / 601005.210.8 9.8-0.212.6
2018-Oct-16 07:37N 43°43' W 068°30'319.1
2018-Oct-16 07:27N 43°40' W 068°32'1119.1
2018-Oct-16 06:51N 43°31' W 068°42'6419.6
2018-Oct-16 03:35N 42°54' W 069°54'219.6
2018-Oct-16 03:30N 42°53' W 069°56'919.8
2018-Oct-16 03:03N 42°48' W 070°06'119.8
2018-Oct-16 03:01N 42°48' W 070°07'1020.2
2018-Oct-16 02:30N 42°42' W 070°18'920.4
2018-Oct-16 02:04N 42°36' W 070°28'120.6
2018-Oct-16 02:00N 42°36' W 070°29'1020.8
2018-Oct-16 01:31N 42°30' W 070°41'920.1
2018-Oct-16 01:04N 42°25' W 070°51'116.4
2018-Oct-16 01:01N 42°24' W 070°52'611.8
2018-Oct-16 00:30N 42°20' W 070°58'3 6.6
2018-Oct-16 00:03N 42°21' W 071°01'0 1.8
2018-Oct-16 00:00N 42°21' W 071°02'0 0.0
2018-Oct-15 23:28N 42°21' W 071°02'0 0.0
2018-Oct-15 23:01N 42°21' W 071°02'0 0.0
2018-Oct-15 22:58N 42°21' W 071°02'0 0.0
2018-Oct-15 22:28N 42°21' W 071°02'0 0.0
2018-Oct-15 22:01N 42°21' W 071°02'391.7
2018-Oct-15 22:00N 42°18' W 071°00'324.0 220 / 221009.710.8 18.216.015.2
2018-Oct-15 21:52N 42°21' W 071°02'0 0.0
2018-Oct-15 21:28N 42°21' W 071°02'0 0.0
2018-Oct-15 21:01N 42°21' W 071°02'0 0.0
2018-Oct-15 20:58N 42°21' W 071°02'0 0.0
2018-Oct-15 20:28N 42°21' W 071°02'0 0.0
2018-Oct-15 20:01N 42°21' W 071°02'0 0.0
2018-Oct-15 19:58N 42°21' W 071°02'0 0.0
2018-Oct-15 19:30N 42°21' W 071°02'0 0.0
2018-Oct-15 19:00N 42°21' W 071°02'0 0.0
2018-Oct-15 18:20N 42°21' W 071°02'0 0.0
2018-Oct-15 17:56N 42°21' W 071°02'0 0.0
2018-Oct-15 17:29N 42°21' W 071°02'0 0.0
2018-Oct-15 16:59N 42°21' W 071°02'0 0.0
2018-Oct-15 16:29N 42°21' W 071°02'0 0.0
2018-Oct-15 16:02N 42°21' W 071°02'0 0.0
2018-Oct-15 15:32N 42°21' W 071°02'0 0.0
2018-Oct-15 15:20N 42°21' W 071°02'0 0.0
2018-Oct-15 14:56N 42°21' W 071°02'1 0.7
2018-Oct-15 14:03N 42°21' W 071°01'0 1.4
2018-Oct-15 14:00N 42°21' W 071°01'3 5.6
2018-Oct-15 13:30N 42°20' W 070°57'613.2
2018-Oct-15 13:03N 42°24' W 070°51'113.1
2018-Oct-15 13:00N 42°24' W 070°50'713.8
2018-Oct-15 12:30N 42°22' W 070°41'817.4
2018-Oct-15 12:03N 42°22' W 070°30'117.2
2018-Oct-15 12:00N 42°22' W 070°29'917.9
2018-Oct-15 11:30N 42°21' W 070°17'818.6
2018-Oct-15 11:03N 42°20' W 070°06'118.7
2018-Oct-15 11:00N 42°20' W 070°05'1110.8
2018-Oct-15 10:00N 42°12' W 069°54'44663.7 200 / 91021.810.8 13.3 8.714.2
2018-Oct-15 03:00N 40°24' W 060°18'49899.5 330 / 191028.310.8 14.0 5.617.6
2018-Oct-14 22:00N 41°18' W 071°12'890.8 1022.310.8 14.0 5.617.6
2018-Oct-14 21:54N 41°24' W 071°20'6 4.0
2018-Oct-14 20:29N 41°29' W 071°20'0 0.0
2018-Oct-14 10:36N 41°29' W 071°20'0 0.9
2018-Oct-14 10:29N 41°29' W 071°20'12111.0
2018-Oct-13 23:27N 40°25' W 073°36'4 9.9
2018-Oct-13 23:00N 40°24' W 073°42'3108.7 280 / 201014.310.8 14.8 7.819.7
2018-Oct-13 22:58N 40°26' W 073°45'511.1
2018-Oct-13 22:30N 40°28' W 073°51'817.4
2018-Oct-13 22:04N 40°31' W 074°00'118.2
2018-Oct-13 22:01N 40°32' W 074°01'815.1
2018-Oct-13 21:30N 40°40' W 074°03'2 4.7
2018-Oct-13 21:03N 40°41' W 074°01'0 0.0
2018-Oct-13 21:00N 40°41' W 074°01'0 0.0
2018-Oct-13 20:29N 40°41' W 074°01'0 0.0
2018-Oct-13 20:01N 40°41' W 074°01'0 0.0
2018-Oct-13 19:58N 40°41' W 074°01'0 0.0
2018-Oct-13 19:31N 40°41' W 074°01'0 0.0
2018-Oct-13 19:03N 40°41' W 074°01'0 0.0
2018-Oct-13 19:00N 40°41' W 074°01'0 0.0
2018-Oct-13 18:30N 40°41' W 074°01'0 0.0
2018-Oct-13 18:03N 40°41' W 074°01'0 0.0
2018-Oct-13 18:00N 40°41' W 074°01'0 0.0
2018-Oct-13 17:30N 40°41' W 074°01'0 0.0
2018-Oct-13 17:02N 40°41' W 074°01'0 0.0
2018-Oct-13 16:59N 40°41' W 074°01'0 0.0
2018-Oct-13 16:29N 40°41' W 074°01'0 0.0
2018-Oct-13 16:02N 40°41' W 074°01'0 0.0
2018-Oct-13 16:00N 40°41' W 074°01'0 0.0
2018-Oct-13 15:28N 40°41' W 074°01'0 0.0
2018-Oct-13 15:01N 40°41' W 074°01'0 0.0
2018-Oct-13 14:58N 40°41' W 074°01'0 0.0
2018-Oct-13 14:29N 40°41' W 074°01'0 0.0
2018-Oct-13 13:57N 40°41' W 074°01'0 0.0
2018-Oct-13 13:30N 40°41' W 074°01'0 0.0
2018-Oct-13 13:03N 40°41' W 074°01'0 0.0
2018-Oct-13 13:00N 40°41' W 074°01'0 0.0
2018-Oct-13 12:29N 40°41' W 074°01'0 0.0
2018-Oct-13 12:02N 40°41' W 074°01'0 0.0
2018-Oct-13 12:00N 40°41' W 074°01'0 0.0
2018-Oct-13 11:28N 40°41' W 074°01'0 0.0
2018-Oct-13 11:03N 40°41' W 074°01'0 0.0
2018-Oct-13 11:00N 40°41' W 074°01'0 0.0
2018-Oct-13 10:30N 40°41' W 074°01'0 0.7
2018-Oct-13 10:03N 40°41' W 074°01'0 2.5
2018-Oct-13 10:00N 40°41' W 074°01'1 2.6
2018-Oct-13 09:30N 40°40' W 074°03'3 7.4
2018-Oct-13 09:03N 40°37' W 074°03'1 9.6
2018-Oct-13 09:00N 40°36' W 074°03'612.4
2018-Oct-13 08:30N 40°31' W 073°59'715.6
2018-Oct-13 08:03N 40°28' W 073°50'115.3
2018-Oct-13 07:59N 40°27' W 073°49'52011.3
2018-Oct-11 10:00N 44°18' W 063°18'28121.6 040 / 241016.110.8 10.3 5.015.3
2018-Oct-10 21:00N 40°18' W 066°36'220 5.8 040 / 241015.810.8 13.810.412.5
2018-Oct-09 07:21N 43°40' W 068°32'7820.2
2018-Oct-09 03:29N 42°53' W 069°57'819.5
2018-Oct-09 03:03N 42°48' W 070°07'120.1
2018-Oct-09 03:00N 42°47' W 070°08'1020.2
2018-Oct-09 02:30N 42°41' W 070°19'920.2
2018-Oct-09 02:03N 42°36' W 070°29'120.0
2018-Oct-09 02:01N 42°36' W 070°30'1020.1
2018-Oct-09 01:30N 42°30' W 070°41'918.9
2018-Oct-09 01:03N 42°25' W 070°50'115.6
2018-Oct-09 01:00N 42°24' W 070°51'612.0
2018-Oct-09 00:30N 42°20' W 070°57'3 6.8
2018-Oct-09 00:03N 42°21' W 071°01'0 2.7
2018-Oct-09 00:00N 42°21' W 071°02'0 0.4
2018-Oct-08 23:23N 42°21' W 071°02'0 0.0
2018-Oct-08 22:59N 42°21' W 071°02'0 0.0
2018-Oct-08 22:29N 42°21' W 071°02'0 0.0
2018-Oct-08 21:58N 42°21' W 071°02'0 0.0
2018-Oct-08 21:30N 42°21' W 071°02'0 0.0
2018-Oct-08 20:59N 42°21' W 071°02'0 0.0
2018-Oct-08 20:20N 42°21' W 071°02'0 0.0
2018-Oct-08 19:59N 42°21' W 071°02'0 0.0
2018-Oct-08 19:29N 42°21' W 071°02'0 0.0
2018-Oct-08 19:03N 42°21' W 071°02'0 0.0
2018-Oct-08 18:56N 42°21' W 071°02'0 0.0
2018-Oct-08 18:09N 42°21' W 071°02'0 0.0
2018-Oct-08 18:01N 42°21' W 071°02'0 0.0
2018-Oct-08 17:59N 42°21' W 071°02'0 0.0
2018-Oct-08 17:26N 42°21' W 071°02'0 0.0
2018-Oct-08 17:02N 42°21' W 071°02'0 0.0
2018-Oct-08 16:59N 42°21' W 071°02'0 0.0
2018-Oct-08 16:20N 42°21' W 071°02'0 0.0
2018-Oct-08 15:53N 42°21' W 071°02'0 0.0
2018-Oct-08 15:18N 42°21' W 071°02'0 0.0
2018-Oct-08 14:56N 42°21' W 071°02'1 0.8
2018-Oct-08 14:03N 42°21' W 071°01'0 1.6
2018-Oct-08 14:00N 42°21' W 071°01'3 7.1
2018-Oct-08 13:30N 42°21' W 070°56'612.2
2018-Oct-08 13:03N 42°24' W 070°50'0 8.1
2018-Oct-08 13:00N 42°24' W 070°49'714.6
2018-Oct-08 12:30N 42°22' W 070°40'919.3
2018-Oct-08 12:03N 42°21' W 070°28'119.2
2018-Oct-08 12:00N 42°21' W 070°27'1020.0
2018-Oct-08 11:30N 42°20' W 070°14'919.9
2018-Oct-08 11:03N 42°19' W 070°01'119.5
2018-Oct-08 11:00N 42°19' W 070°00'90 7.5
2018-Oct-07 23:00N 41°00' W 071°00'2742.1 250 / 141021.910.8 20.519.418.7
2018-Oct-07 22:21N 41°23' W 071°19'514.0
2018-Oct-07 21:59N 41°27' W 071°23'3 3.5
2018-Oct-07 21:12N 41°29' W 071°20'0 0.0
2018-Oct-07 10:40N 41°29' W 071°20'0 1.2
2018-Oct-07 10:27N 41°29' W 071°21'  

Dump ship's entire track history